sensor_id;sensor_type;location;lat;lon;timestamp;pressure;altitude;pressure_sealevel;temperature;humidity
45071;BME280;30836;48.906;9.140;2024-01-16T00:00:29;980.63;;;6.85;42.00
45071;BME280;30836;48.906;9.140;2024-01-16T00:01:29;980.63;;;6.80;42.29
45071;BME280;30836;48.906;9.140;2024-01-16T00:02:30;980.63;;;6.71;42.38
45071;BME280;30836;48.906;9.140;2024-01-16T00:03:30;980.65;;;6.73;42.18
45071;BME280;30836;48.906;9.140;2024-01-16T00:04:30;980.63;;;6.77;42.15
45071;BME280;30836;48.906;9.140;2024-01-16T00:05:31;980.65;;;6.74;42.25
45071;BME280;30836;48.906;9.140;2024-01-16T00:06:31;980.63;;;6.62;42.52
45071;BME280;30836;48.906;9.140;2024-01-16T00:07:32;980.65;;;6.57;42.46
45071;BME280;30836;48.906;9.140;2024-01-16T00:08:32;980.63;;;6.70;42.13
45071;BME280;30836;48.906;9.140;2024-01-16T00:09:33;980.63;;;6.81;41.93
45071;BME280;30836;48.906;9.140;2024-01-16T00:10:34;980.61;;;6.87;41.92
45071;BME280;30836;48.906;9.140;2024-01-16T00:11:39;980.63;;;6.85;42.06
45071;BME280;30836;48.906;9.140;2024-01-16T00:12:41;980.63;;;6.84;41.95
45071;BME280;30836;48.906;9.140;2024-01-16T00:13:41;980.61;;;6.93;41.74
45071;BME280;30836;48.906;9.140;2024-01-16T00:14:42;980.61;;;6.97;41.70
45071;BME280;30836;48.906;9.140;2024-01-16T00:15:42;980.61;;;6.94;41.88
45071;BME280;30836;48.906;9.140;2024-01-16T00:16:45;980.61;;;6.90;41.88
45071;BME280;30836;48.906;9.140;2024-01-16T00:17:46;980.57;;;6.88;41.91
45071;BME280;30836;48.906;9.140;2024-01-16T00:18:47;980.55;;;6.85;42.04
45071;BME280;30836;48.906;9.140;2024-01-16T00:19:47;980.57;;;6.84;41.85
45071;BME280;30836;48.906;9.140;2024-01-16T00:20:47;980.55;;;6.84;42.02
45071;BME280;30836;48.906;9.140;2024-01-16T00:21:48;980.55;;;6.81;41.85
45071;BME280;30836;48.906;9.140;2024-01-16T00:22:49;980.55;;;6.80;41.89
45071;BME280;30836;48.906;9.140;2024-01-16T00:23:49;980.55;;;6.77;41.94
45071;BME280;30836;48.906;9.140;2024-01-16T00:24:50;980.57;;;6.75;41.88
45071;BME280;30836;48.906;9.140;2024-01-16T00:25:50;980.57;;;6.71;41.99
45071;BME280;30836;48.906;9.140;2024-01-16T00:26:50;980.53;;;6.67;41.99
45071;BME280;30836;48.906;9.140;2024-01-16T00:27:51;980.51;;;6.69;41.76
45071;BME280;30836;48.906;9.140;2024-01-16T00:28:52;980.51;;;6.67;41.95
45071;BME280;30836;48.906;9.140;2024-01-16T00:29:52;980.53;;;6.62;41.96
45071;BME280;30836;48.906;9.140;2024-01-16T00:30:52;980.55;;;6.54;42.26
45071;BME280;30836;48.906;9.140;2024-01-16T00:31:53;980.51;;;6.49;42.29
45071;BME280;30836;48.906;9.140;2024-01-16T00:32:53;980.51;;;6.44;42.41
45071;BME280;30836;48.906;9.140;2024-01-16T00:33:54;980.53;;;6.42;42.40
45071;BME280;30836;48.906;9.140;2024-01-16T00:34:54;980.53;;;6.41;42.39
45071;BME280;30836;48.906;9.140;2024-01-16T00:35:55;980.53;;;6.44;42.40
45071;BME280;30836;48.906;9.140;2024-01-16T00:36:55;980.51;;;6.55;42.10
45071;BME280;30836;48.906;9.140;2024-01-16T00:37:55;980.49;;;6.62;42.07
45071;BME280;30836;48.906;9.140;2024-01-16T00:38:56;980.53;;;6.59;42.16
45071;BME280;30836;48.906;9.140;2024-01-16T00:39:56;980.55;;;6.55;42.08
45071;BME280;30836;48.906;9.140;2024-01-16T00:40:57;980.53;;;6.53;42.15
45071;BME280;30836;48.906;9.140;2024-01-16T00:41:57;980.51;;;6.58;41.95
45071;BME280;30836;48.906;9.140;2024-01-16T00:42:58;980.51;;;6.62;42.04
45071;BME280;30836;48.906;9.140;2024-01-16T00:43:58;980.55;;;6.62;41.96
45071;BME280;30836;48.906;9.140;2024-01-16T00:44:59;980.49;;;6.59;42.01
45071;BME280;30836;48.906;9.140;2024-01-16T00:45:59;980.51;;;6.55;42.14
45071;BME280;30836;48.906;9.140;2024-01-16T00:47:00;980.49;;;6.57;42.02
45071;BME280;30836;48.906;9.140;2024-01-16T00:48:00;980.51;;;6.62;41.83
45071;BME280;30836;48.906;9.140;2024-01-16T00:49:01;980.55;;;6.67;41.93
45071;BME280;30836;48.906;9.140;2024-01-16T00:50:01;980.53;;;6.69;41.74
45071;BME280;30836;48.906;9.140;2024-01-16T00:51:02;980.55;;;6.66;41.97
45071;BME280;30836;48.906;9.140;2024-01-16T00:52:03;980.59;;;6.58;42.00
45071;BME280;30836;48.906;9.140;2024-01-16T00:53:03;980.57;;;6.64;41.80
45071;BME280;30836;48.906;9.140;2024-01-16T00:54:04;980.59;;;6.69;41.72
45071;BME280;30836;48.906;9.140;2024-01-16T00:55:05;980.57;;;6.63;42.13
45071;BME280;30836;48.906;9.140;2024-01-16T00:56:06;980.57;;;6.52;42.26
45071;BME280;30836;48.906;9.140;2024-01-16T00:57:06;980.57;;;6.48;42.28
45071;BME280;30836;48.906;9.140;2024-01-16T00:58:07;980.55;;;6.51;42.08
45071;BME280;30836;48.906;9.140;2024-01-16T00:59:07;980.55;;;6.54;42.06
45071;BME280;30836;48.906;9.140;2024-01-16T01:00:08;980.53;;;6.56;41.99
45071;BME280;30836;48.906;9.140;2024-01-16T01:01:08;980.49;;;6.54;42.08
45071;BME280;30836;48.906;9.140;2024-01-16T01:02:09;980.51;;;6.43;42.39
45071;BME280;30836;48.906;9.140;2024-01-16T01:03:09;980.45;;;6.30;42.74
45071;BME280;30836;48.906;9.140;2024-01-16T01:04:09;980.47;;;6.22;42.82
45071;BME280;30836;48.906;9.140;2024-01-16T01:05:10;980.47;;;6.20;42.96
45071;BME280;30836;48.906;9.140;2024-01-16T01:06:11;980.47;;;6.14;43.08
45071;BME280;30836;48.906;9.140;2024-01-16T01:07:15;980.51;;;6.17;42.89
45071;BME280;30836;48.906;9.140;2024-01-16T01:08:16;980.51;;;6.29;42.54
45071;BME280;30836;48.906;9.140;2024-01-16T01:09:16;980.51;;;6.33;42.58
45071;BME280;30836;48.906;9.140;2024-01-16T01:10:17;980.51;;;6.29;42.91
45071;BME280;30836;48.906;9.140;2024-01-16T01:11:17;980.49;;;6.24;42.92
45071;BME280;30836;48.906;9.140;2024-01-16T01:12:18;980.49;;;6.27;42.79
45071;BME280;30836;48.906;9.140;2024-01-16T01:13:18;980.57;;;6.34;42.53
45071;BME280;30836;48.906;9.140;2024-01-16T01:14:19;980.51;;;6.33;42.80
45071;BME280;30836;48.906;9.140;2024-01-16T01:15:19;980.57;;;6.16;43.20
45071;BME280;30836;48.906;9.140;2024-01-16T01:16:20;980.55;;;5.97;43.70
45071;BME280;30836;48.906;9.140;2024-01-16T01:17:21;980.51;;;5.86;43.94
45071;BME280;30836;48.906;9.140;2024-01-16T01:18:21;980.55;;;5.80;44.06
45071;BME280;30836;48.906;9.140;2024-01-16T01:19:22;980.53;;;5.79;44.06
45071;BME280;30836;48.906;9.140;2024-01-16T01:20:22;980.55;;;5.87;43.74
45071;BME280;30836;48.906;9.140;2024-01-16T01:21:23;980.57;;;5.97;43.62
45071;BME280;30836;48.906;9.140;2024-01-16T01:22:23;980.55;;;6.02;43.44
45071;BME280;30836;48.906;9.140;2024-01-16T01:23:23;980.59;;;6.02;43.59
45071;BME280;30836;48.906;9.140;2024-01-16T01:24:24;980.55;;;5.95;43.78
45071;BME280;30836;48.906;9.140;2024-01-16T01:25:24;980.59;;;5.95;43.66
45071;BME280;30836;48.906;9.140;2024-01-16T01:26:25;980.59;;;5.93;44.00
45071;BME280;30836;48.906;9.140;2024-01-16T01:27:25;980.63;;;5.89;43.86
45071;BME280;30836;48.906;9.140;2024-01-16T01:28:26;980.63;;;5.89;43.93
45071;BME280;30836;48.906;9.140;2024-01-16T01:29:26;980.65;;;5.80;44.11
45071;BME280;30836;48.906;9.140;2024-01-16T01:30:27;980.67;;;5.73;44.38
45071;BME280;30836;48.906;9.140;2024-01-16T01:31:27;980.65;;;5.66;44.51
45071;BME280;30836;48.906;9.140;2024-01-16T01:32:27;980.69;;;5.56;44.86
45071;BME280;30836;48.906;9.140;2024-01-16T01:33:28;980.69;;;5.54;44.76
45071;BME280;30836;48.906;9.140;2024-01-16T01:34:28;980.71;;;5.58;44.58
45071;BME280;30836;48.906;9.140;2024-01-16T01:35:29;980.69;;;5.60;44.42
45071;BME280;30836;48.906;9.140;2024-01-16T01:36:29;980.75;;;5.68;44.23
45071;BME280;30836;48.906;9.140;2024-01-16T01:37:30;980.73;;;5.80;44.13
45071;BME280;30836;48.906;9.140;2024-01-16T01:38:30;980.73;;;5.86;43.79
45071;BME280;30836;48.906;9.140;2024-01-16T01:39:31;980.73;;;5.88;44.10
45071;BME280;30836;48.906;9.140;2024-01-16T01:40:31;980.73;;;5.89;43.99
45071;BME280;30836;48.906;9.140;2024-01-16T01:41:31;980.73;;;5.93;43.85
45071;BME280;30836;48.906;9.140;2024-01-16T01:42:32;980.73;;;5.88;44.17
45071;BME280;30836;48.906;9.140;2024-01-16T01:43:32;980.73;;;5.81;44.27
45071;BME280;30836;48.906;9.140;2024-01-16T01:44:33;980.75;;;5.83;44.21
45071;BME280;30836;48.906;9.140;2024-01-16T01:45:33;980.75;;;5.87;44.13
45071;BME280;30836;48.906;9.140;2024-01-16T01:46:34;980.77;;;5.88;44.03
45071;BME280;30836;48.906;9.140;2024-01-16T01:47:36;980.79;;;5.89;44.22
45071;BME280;30836;48.906;9.140;2024-01-16T01:48:37;980.79;;;5.91;44.01
45071;BME280;30836;48.906;9.140;2024-01-16T01:49:39;980.79;;;5.95;43.78
45071;BME280;30836;48.906;9.140;2024-01-16T01:50:40;980.82;;;5.97;43.91
45071;BME280;30836;48.906;9.140;2024-01-16T01:51:41;980.79;;;5.95;44.08
45071;BME280;30836;48.906;9.140;2024-01-16T01:52:42;980.82;;;5.94;44.01
45071;BME280;30836;48.906;9.140;2024-01-16T01:53:44;980.84;;;5.98;43.89
45071;BME280;30836;48.906;9.140;2024-01-16T01:54:45;980.84;;;6.04;43.70
45071;BME280;30836;48.906;9.140;2024-01-16T01:55:46;980.82;;;6.05;43.60
45071;BME280;30836;48.906;9.140;2024-01-16T01:56:47;980.88;;;6.03;43.76
45071;BME280;30836;48.906;9.140;2024-01-16T01:57:48;980.86;;;6.03;43.72
45071;BME280;30836;48.906;9.140;2024-01-16T01:58:49;980.84;;;6.07;43.48
45071;BME280;30836;48.906;9.140;2024-01-16T01:59:56;980.86;;;6.10;43.35
45071;BME280;30836;48.906;9.140;2024-01-16T02:00:56;980.88;;;6.11;43.48
45071;BME280;30836;48.906;9.140;2024-01-16T02:01:57;980.88;;;6.17;43.32
45071;BME280;30836;48.906;9.140;2024-01-16T02:02:58;980.92;;;6.25;43.10
45071;BME280;30836;48.906;9.140;2024-01-16T02:03:58;980.92;;;6.23;43.39
45071;BME280;30836;48.906;9.140;2024-01-16T02:04:59;980.96;;;6.19;43.48
45071;BME280;30836;48.906;9.140;2024-01-16T02:06:00;980.96;;;6.16;43.36
45071;BME280;30836;48.906;9.140;2024-01-16T02:07:00;980.98;;;6.19;43.35
45071;BME280;30836;48.906;9.140;2024-01-16T02:08:01;980.98;;;6.29;43.05
45071;BME280;30836;48.906;9.140;2024-01-16T02:09:02;980.98;;;6.36;42.94
45071;BME280;30836;48.906;9.140;2024-01-16T02:10:02;980.98;;;6.41;42.83
45071;BME280;30836;48.906;9.140;2024-01-16T02:11:03;981.04;;;6.50;42.75
45071;BME280;30836;48.906;9.140;2024-01-16T02:12:05;981.00;;;6.56;42.60
45071;BME280;30836;48.906;9.140;2024-01-16T02:13:06;981.00;;;6.61;42.49
45071;BME280;30836;48.906;9.140;2024-01-16T02:14:06;981.00;;;6.67;42.26
45071;BME280;30836;48.906;9.140;2024-01-16T02:15:07;980.98;;;6.70;42.40
45071;BME280;30836;48.906;9.140;2024-01-16T02:17:18;981.00;;;6.61;42.57
45071;BME280;30836;48.906;9.140;2024-01-16T02:18:18;981.00;;;6.57;42.68
45071;BME280;30836;48.906;9.140;2024-01-16T02:19:19;981.06;;;6.58;42.50
45071;BME280;30836;48.906;9.140;2024-01-16T02:20:19;981.04;;;6.61;42.58
45071;BME280;30836;48.906;9.140;2024-01-16T02:21:22;981.02;;;6.60;42.42
45071;BME280;30836;48.906;9.140;2024-01-16T02:22:28;981.04;;;6.61;42.53
45071;BME280;30836;48.906;9.140;2024-01-16T02:23:31;981.04;;;6.59;42.51
45071;BME280;30836;48.906;9.140;2024-01-16T02:23:42;981.06;;;6.56;42.51
45071;BME280;30836;48.906;9.140;2024-01-16T02:24:43;981.06;;;6.58;42.46
45071;BME280;30836;48.906;9.140;2024-01-16T02:25:44;981.06;;;6.55;42.47
45071;BME280;30836;48.906;9.140;2024-01-16T02:26:44;981.06;;;6.40;43.09
45071;BME280;30836;48.906;9.140;2024-01-16T02:27:45;981.08;;;6.24;43.37
45071;BME280;30836;48.906;9.140;2024-01-16T02:28:46;981.06;;;6.14;43.42
45071;BME280;30836;48.906;9.140;2024-01-16T02:29:46;981.04;;;6.08;43.51
45071;BME280;30836;48.906;9.140;2024-01-16T02:30:47;981.02;;;6.03;43.79
45071;BME280;30836;48.906;9.140;2024-01-16T02:31:47;981.02;;;6.00;43.72
45071;BME280;30836;48.906;9.140;2024-01-16T02:32:47;981.00;;;6.01;43.65
45071;BME280;30836;48.906;9.140;2024-01-16T02:33:48;981.02;;;5.94;44.00
45071;BME280;30836;48.906;9.140;2024-01-16T02:34:48;980.98;;;5.85;44.09
45071;BME280;30836;48.906;9.140;2024-01-16T02:35:49;980.92;;;5.91;43.93
45071;BME280;30836;48.906;9.140;2024-01-16T02:36:49;980.94;;;6.01;43.72
45071;BME280;30836;48.906;9.140;2024-01-16T02:37:50;980.96;;;6.11;43.43
45071;BME280;30836;48.906;9.140;2024-01-16T02:38:50;980.98;;;6.19;43.27
45071;BME280;30836;48.906;9.140;2024-01-16T02:39:51;981.00;;;6.23;43.23
45071;BME280;30836;48.906;9.140;2024-01-16T02:40:51;980.98;;;6.25;43.15
45071;BME280;30836;48.906;9.140;2024-01-16T02:41:52;980.96;;;6.28;43.05
45071;BME280;30836;48.906;9.140;2024-01-16T02:42:52;980.96;;;6.31;43.02
45071;BME280;30836;48.906;9.140;2024-01-16T02:43:53;980.98;;;6.36;42.99
45071;BME280;30836;48.906;9.140;2024-01-16T02:44:53;980.94;;;6.44;42.79
45071;BME280;30836;48.906;9.140;2024-01-16T02:45:53;980.96;;;6.51;42.62
45071;BME280;30836;48.906;9.140;2024-01-16T02:46:54;980.98;;;6.54;42.54
45071;BME280;30836;48.906;9.140;2024-01-16T02:47:54;981.00;;;6.53;42.53
45071;BME280;30836;48.906;9.140;2024-01-16T02:48:55;980.98;;;6.49;42.59
45071;BME280;30836;48.906;9.140;2024-01-16T02:49:55;981.02;;;6.45;42.66
45071;BME280;30836;48.906;9.140;2024-01-16T02:50:56;981.02;;;6.43;42.60
45071;BME280;30836;48.906;9.140;2024-01-16T02:51:56;981.04;;;6.42;42.59
45071;BME280;30836;48.906;9.140;2024-01-16T02:52:57;981.06;;;6.43;42.59
45071;BME280;30836;48.906;9.140;2024-01-16T02:53:57;981.06;;;6.44;42.58
45071;BME280;30836;48.906;9.140;2024-01-16T02:54:57;981.08;;;6.45;42.55
45071;BME280;30836;48.906;9.140;2024-01-16T02:55:58;981.10;;;6.45;42.64
45071;BME280;30836;48.906;9.140;2024-01-16T02:56:58;981.14;;;6.48;42.50
45071;BME280;30836;48.906;9.140;2024-01-16T02:57:59;981.12;;;6.52;42.41
45071;BME280;30836;48.906;9.140;2024-01-16T02:58:59;981.14;;;6.55;42.37
45071;BME280;30836;48.906;9.140;2024-01-16T03:00:00;981.12;;;6.57;42.30
45071;BME280;30836;48.906;9.140;2024-01-16T03:01:00;981.10;;;6.57;42.22
45071;BME280;30836;48.906;9.140;2024-01-16T03:02:00;981.12;;;6.60;42.17
45071;BME280;30836;48.906;9.140;2024-01-16T03:03:01;981.08;;;6.62;42.16
45071;BME280;30836;48.906;9.140;2024-01-16T03:04:01;981.12;;;6.62;42.13
45071;BME280;30836;48.906;9.140;2024-01-16T03:05:02;981.10;;;6.64;42.08
45071;BME280;30836;48.906;9.140;2024-01-16T03:06:03;981.12;;;6.67;41.97
45071;BME280;30836;48.906;9.140;2024-01-16T03:07:04;981.10;;;6.69;41.95
45071;BME280;30836;48.906;9.140;2024-01-16T03:08:05;981.10;;;6.70;41.98
45071;BME280;30836;48.906;9.140;2024-01-16T03:09:07;981.10;;;6.65;42.02
45071;BME280;30836;48.906;9.140;2024-01-16T03:10:07;981.08;;;6.61;42.04
45071;BME280;30836;48.906;9.140;2024-01-16T03:11:08;981.08;;;6.61;41.99
45071;BME280;30836;48.906;9.140;2024-01-16T03:12:08;981.10;;;6.61;42.05
45071;BME280;30836;48.906;9.140;2024-01-16T03:13:09;981.10;;;6.59;42.09
45071;BME280;30836;48.906;9.140;2024-01-16T03:14:09;981.10;;;6.57;42.14
45071;BME280;30836;48.906;9.140;2024-01-16T03:15:10;981.10;;;6.57;42.11
45071;BME280;30836;48.906;9.140;2024-01-16T03:16:10;981.10;;;6.59;42.01
45071;BME280;30836;48.906;9.140;2024-01-16T03:17:11;981.12;;;6.62;41.94
45071;BME280;30836;48.906;9.140;2024-01-16T03:18:11;981.12;;;6.63;41.85
45071;BME280;30836;48.906;9.140;2024-01-16T03:19:12;981.12;;;6.64;41.85
45071;BME280;30836;48.906;9.140;2024-01-16T03:20:13;981.12;;;6.64;41.80
45071;BME280;30836;48.906;9.140;2024-01-16T03:21:13;981.14;;;6.71;41.55
45071;BME280;30836;48.906;9.140;2024-01-16T03:22:13;981.12;;;6.83;41.24
45071;BME280;30836;48.906;9.140;2024-01-16T03:23:14;981.10;;;6.93;40.99
45071;BME280;30836;48.906;9.140;2024-01-16T03:24:14;981.08;;;6.99;40.88
45071;BME280;30836;48.906;9.140;2024-01-16T03:25:15;981.08;;;6.98;40.83
45071;BME280;30836;48.906;9.140;2024-01-16T03:26:16;981.04;;;6.97;40.87
45071;BME280;30836;48.906;9.140;2024-01-16T03:27:17;981.06;;;7.01;40.63
45071;BME280;30836;48.906;9.140;2024-01-16T03:28:17;981.06;;;7.05;40.48
45071;BME280;30836;48.906;9.140;2024-01-16T03:29:18;981.06;;;7.10;40.31
45071;BME280;30836;48.906;9.140;2024-01-16T03:30:18;981.08;;;7.13;40.23
45071;BME280;30836;48.906;9.140;2024-01-16T03:31:19;981.14;;;7.15;40.16
45071;BME280;30836;48.906;9.140;2024-01-16T03:32:19;981.14;;;7.13;40.27
45071;BME280;30836;48.906;9.140;2024-01-16T03:33:20;981.14;;;7.07;40.35
45071;BME280;30836;48.906;9.140;2024-01-16T03:34:20;981.14;;;7.04;40.37
45071;BME280;30836;48.906;9.140;2024-01-16T03:35:21;981.16;;;7.01;40.35
45071;BME280;30836;48.906;9.140;2024-01-16T03:36:21;981.16;;;7.01;40.37
45071;BME280;30836;48.906;9.140;2024-01-16T03:37:21;981.16;;;7.01;40.33
45071;BME280;30836;48.906;9.140;2024-01-16T03:38:22;981.14;;;7.00;40.34
45071;BME280;30836;48.906;9.140;2024-01-16T03:39:22;981.14;;;7.00;40.34
45071;BME280;30836;48.906;9.140;2024-01-16T03:40:23;981.12;;;6.99;40.35
45071;BME280;30836;48.906;9.140;2024-01-16T03:41:23;981.16;;;6.96;40.53
45071;BME280;30836;48.906;9.140;2024-01-16T03:42:24;981.14;;;6.95;40.48
45071;BME280;30836;48.906;9.140;2024-01-16T03:43:24;981.18;;;6.93;40.49
45071;BME280;30836;48.906;9.140;2024-01-16T03:44:25;981.18;;;6.90;40.51
45071;BME280;30836;48.906;9.140;2024-01-16T03:45:25;981.14;;;6.85;40.69
45071;BME280;30836;48.906;9.140;2024-01-16T03:46:25;981.14;;;6.75;40.80
45071;BME280;30836;48.906;9.140;2024-01-16T03:47:26;981.12;;;6.66;40.84
45071;BME280;30836;48.906;9.140;2024-01-16T03:48:26;981.10;;;6.61;40.94
45071;BME280;30836;48.906;9.140;2024-01-16T03:49:27;981.10;;;6.56;41.05
45071;BME280;30836;48.906;9.140;2024-01-16T03:50:27;981.06;;;6.52;41.16
45071;BME280;30836;48.906;9.140;2024-01-16T03:51:28;981.08;;;6.45;41.36
45071;BME280;30836;48.906;9.140;2024-01-16T03:52:28;981.10;;;6.38;41.42
45071;BME280;30836;48.906;9.140;2024-01-16T03:53:29;981.06;;;6.34;41.32
45071;BME280;30836;48.906;9.140;2024-01-16T03:54:29;981.06;;;6.30;41.60
45071;BME280;30836;48.906;9.140;2024-01-16T03:55:30;981.04;;;6.29;41.45
45071;BME280;30836;48.906;9.140;2024-01-16T03:56:30;981.02;;;6.32;41.41
45071;BME280;30836;48.906;9.140;2024-01-16T03:57:30;981.00;;;6.33;41.40
45071;BME280;30836;48.906;9.140;2024-01-16T03:58:31;981.02;;;6.31;41.44
45071;BME280;30836;48.906;9.140;2024-01-16T03:59:31;980.98;;;6.30;41.42
45071;BME280;30836;48.906;9.140;2024-01-16T04:00:32;980.98;;;6.33;41.25
45071;BME280;30836;48.906;9.140;2024-01-16T04:01:32;980.92;;;6.38;41.08
45071;BME280;30836;48.906;9.140;2024-01-16T04:02:34;980.92;;;6.41;41.05
45071;BME280;30836;48.906;9.140;2024-01-16T04:03:34;980.92;;;6.42;41.03
45071;BME280;30836;48.906;9.140;2024-01-16T04:04:34;980.94;;;6.44;41.08
45071;BME280;30836;48.906;9.140;2024-01-16T04:05:35;980.96;;;6.42;41.06
45071;BME280;30836;48.906;9.140;2024-01-16T04:06:35;980.98;;;6.41;41.02
45071;BME280;30836;48.906;9.140;2024-01-16T04:07:36;980.98;;;6.47;40.90
45071;BME280;30836;48.906;9.140;2024-01-16T04:08:36;980.96;;;6.52;40.76
45071;BME280;30836;48.906;9.140;2024-01-16T04:09:37;980.98;;;6.53;40.81
45071;BME280;30836;48.906;9.140;2024-01-16T04:10:37;980.98;;;6.48;40.84
45071;BME280;30836;48.906;9.140;2024-01-16T04:11:38;980.98;;;6.40;41.17
45071;BME280;30836;48.906;9.140;2024-01-16T04:12:38;981.00;;;6.34;41.11
45071;BME280;30836;48.906;9.140;2024-01-16T04:13:39;981.04;;;6.30;41.24
45071;BME280;30836;48.906;9.140;2024-01-16T04:14:39;981.02;;;6.28;41.25
45071;BME280;30836;48.906;9.140;2024-01-16T04:15:40;981.00;;;6.31;41.01
45071;BME280;30836;48.906;9.140;2024-01-16T04:16:40;981.00;;;6.30;41.19
45071;BME280;30836;48.906;9.140;2024-01-16T04:17:41;981.04;;;6.26;41.25
45071;BME280;30836;48.906;9.140;2024-01-16T04:18:42;981.06;;;6.25;41.26
45071;BME280;30836;48.906;9.140;2024-01-16T04:19:43;981.06;;;6.27;41.16
45071;BME280;30836;48.906;9.140;2024-01-16T04:20:44;981.04;;;6.29;40.94
45071;BME280;30836;48.906;9.140;2024-01-16T04:21:44;981.08;;;6.32;40.88
45071;BME280;30836;48.906;9.140;2024-01-16T04:22:45;981.06;;;6.37;40.72
45071;BME280;30836;48.906;9.140;2024-01-16T04:23:45;981.04;;;6.40;40.61
45071;BME280;30836;48.906;9.140;2024-01-16T04:24:46;981.04;;;6.40;40.50
45071;BME280;30836;48.906;9.140;2024-01-16T04:25:47;981.04;;;6.40;40.59
45071;BME280;30836;48.906;9.140;2024-01-16T04:26:47;981.02;;;6.41;40.52
45071;BME280;30836;48.906;9.140;2024-01-16T04:27:47;981.02;;;6.43;40.40
45071;BME280;30836;48.906;9.140;2024-01-16T04:28:48;981.02;;;6.39;40.47
45071;BME280;30836;48.906;9.140;2024-01-16T04:29:48;981.06;;;6.33;40.55
45071;BME280;30836;48.906;9.140;2024-01-16T04:30:49;981.04;;;6.30;40.60
45071;BME280;30836;48.906;9.140;2024-01-16T04:31:49;981.06;;;6.29;40.59
45071;BME280;30836;48.906;9.140;2024-01-16T04:32:50;981.08;;;6.26;40.65
45071;BME280;30836;48.906;9.140;2024-01-16T04:33:50;981.10;;;6.23;40.73
45071;BME280;30836;48.906;9.140;2024-01-16T04:34:51;981.08;;;6.25;40.58
45071;BME280;30836;48.906;9.140;2024-01-16T04:35:51;981.08;;;6.27;40.53
45071;BME280;30836;48.906;9.140;2024-01-16T04:36:51;981.08;;;6.25;40.51
45071;BME280;30836;48.906;9.140;2024-01-16T04:37:52;981.06;;;6.27;40.51
45071;BME280;30836;48.906;9.140;2024-01-16T04:38:52;981.06;;;6.32;40.40
45071;BME280;30836;48.906;9.140;2024-01-16T04:39:53;981.06;;;6.34;40.35
45071;BME280;30836;48.906;9.140;2024-01-16T04:40:53;981.04;;;6.37;40.30
45071;BME280;30836;48.906;9.140;2024-01-16T04:41:53;981.02;;;6.37;40.35
45071;BME280;30836;48.906;9.140;2024-01-16T04:42:54;981.02;;;6.34;40.37
45071;BME280;30836;48.906;9.140;2024-01-16T04:43:54;981.02;;;6.30;40.39
45071;BME280;30836;48.906;9.140;2024-01-16T04:44:55;981.06;;;6.28;40.43
45071;BME280;30836;48.906;9.140;2024-01-16T04:45:56;981.04;;;6.26;40.52
45071;BME280;30836;48.906;9.140;2024-01-16T04:46:56;981.04;;;6.20;40.72
45071;BME280;30836;48.906;9.140;2024-01-16T04:47:56;981.02;;;6.14;40.79
45071;BME280;30836;48.906;9.140;2024-01-16T04:48:57;981.02;;;6.09;40.87
45071;BME280;30836;48.906;9.140;2024-01-16T04:49:57;980.98;;;6.03;40.95
45071;BME280;30836;48.906;9.140;2024-01-16T04:50:58;980.98;;;6.03;40.86
45071;BME280;30836;48.906;9.140;2024-01-16T04:51:58;980.96;;;6.04;40.85
45071;BME280;30836;48.906;9.140;2024-01-16T04:52:59;980.92;;;6.06;40.79
45071;BME280;30836;48.906;9.140;2024-01-16T04:53:59;980.94;;;6.12;40.75
45071;BME280;30836;48.906;9.140;2024-01-16T04:55:00;980.90;;;6.17;40.67
45071;BME280;30836;48.906;9.140;2024-01-16T04:56:00;980.90;;;6.19;40.61
45071;BME280;30836;48.906;9.140;2024-01-16T04:57:00;980.92;;;6.23;40.50
45071;BME280;30836;48.906;9.140;2024-01-16T04:58:01;980.92;;;6.26;40.45
45071;BME280;30836;48.906;9.140;2024-01-16T04:59:01;980.90;;;6.28;40.47
45071;BME280;30836;48.906;9.140;2024-01-16T05:00:02;980.92;;;6.31;40.42
45071;BME280;30836;48.906;9.140;2024-01-16T05:01:03;980.96;;;6.32;40.46
45071;BME280;30836;48.906;9.140;2024-01-16T05:02:04;980.98;;;6.31;40.40
45071;BME280;30836;48.906;9.140;2024-01-16T05:03:04;981.00;;;6.28;40.52
45071;BME280;30836;48.906;9.140;2024-01-16T05:04:05;980.98;;;6.26;40.55
45071;BME280;30836;48.906;9.140;2024-01-16T05:05:05;980.96;;;6.26;40.45
45071;BME280;30836;48.906;9.140;2024-01-16T05:06:12;980.96;;;6.27;40.35
45071;BME280;30836;48.906;9.140;2024-01-16T05:07:15;980.96;;;6.26;40.37
45071;BME280;30836;48.906;9.140;2024-01-16T05:08:15;980.94;;;6.25;40.30
45071;BME280;30836;48.906;9.140;2024-01-16T05:09:16;980.96;;;6.24;40.40
45071;BME280;30836;48.906;9.140;2024-01-16T05:10:16;980.92;;;6.23;40.40
45071;BME280;30836;48.906;9.140;2024-01-16T05:11:16;980.94;;;6.19;40.53
45071;BME280;30836;48.906;9.140;2024-01-16T05:12:17;980.92;;;6.15;40.47
45071;BME280;30836;48.906;9.140;2024-01-16T05:13:17;980.90;;;6.16;40.45
45071;BME280;30836;48.906;9.140;2024-01-16T05:14:18;980.92;;;6.19;40.33
45071;BME280;30836;48.906;9.140;2024-01-16T05:15:18;980.90;;;6.22;40.27
45071;BME280;30836;48.906;9.140;2024-01-16T05:16:19;980.90;;;6.25;40.28
45071;BME280;30836;48.906;9.140;2024-01-16T05:17:19;980.86;;;6.28;40.17
45071;BME280;30836;48.906;9.140;2024-01-16T05:18:19;980.86;;;6.29;40.04
45071;BME280;30836;48.906;9.140;2024-01-16T05:19:20;980.88;;;6.27;40.20
45071;BME280;30836;48.906;9.140;2024-01-16T05:20:20;980.88;;;6.24;40.20
45071;BME280;30836;48.906;9.140;2024-01-16T05:21:21;980.86;;;6.23;40.21
45071;BME280;30836;48.906;9.140;2024-01-16T05:22:21;980.88;;;6.22;40.13
45071;BME280;30836;48.906;9.140;2024-01-16T05:23:22;980.86;;;6.23;40.10
45071;BME280;30836;48.906;9.140;2024-01-16T05:24:22;980.86;;;6.25;40.11
45071;BME280;30836;48.906;9.140;2024-01-16T05:25:23;980.84;;;6.27;40.09
45071;BME280;30836;48.906;9.140;2024-01-16T05:26:23;980.82;;;6.31;40.02
45071;BME280;30836;48.906;9.140;2024-01-16T05:27:23;980.84;;;6.34;39.95
45071;BME280;30836;48.906;9.140;2024-01-16T05:28:24;980.82;;;6.36;39.88
45071;BME280;30836;48.906;9.140;2024-01-16T05:29:24;980.79;;;6.35;39.92
45071;BME280;30836;48.906;9.140;2024-01-16T05:30:25;980.77;;;6.34;39.81
45071;BME280;30836;48.906;9.140;2024-01-16T05:31:25;980.75;;;6.35;39.79
45071;BME280;30836;48.906;9.140;2024-01-16T05:32:26;980.73;;;6.39;39.63
45071;BME280;30836;48.906;9.140;2024-01-16T05:33:26;980.73;;;6.43;39.54
45071;BME280;30836;48.906;9.140;2024-01-16T05:34:27;980.73;;;6.44;39.48